Tiempo atmosférico en la estación meteorológica de Barcelona Aeropuerto, Barcelona (4 m.)



Fecha
DESCASC
Temp. máxima en grados centígrados (hora)
DESCASC
Temp. mínima en grados centígrados (hora)
DESCASC
Temp. media en grados centígrados
DESCASC
Racha de viento máxima en m/sg (hora)
DESCASC
Velocidad máxima media en intervalos de 10 minutos(hora)
DESCASC
Precipitaciones diarias en mm
DESCASC
Precipitaciones de 00:00 a 06:00 en mm
DESCASC
Precipitaciones de 06:00 a 12:00 en mm
DESCASC
Precipitaciones de 12:00 a 18:00 en mm
DESCASC
Precipitaciones de 18:00 a 24:00 en mm
DESCASC
08-12-2019 15 (15:40) 6.6 (06:10) 10.8 9.72 (07:50) 7.22 (08:00) 0 0 0 0 0
07-12-2019 16.6 (13:40) 7.8 (05:40) 12.2 10.28 (21:20) 6.39 (22:10) 0 0 0 0 0
06-12-2019 16.7 (13:10) 9.8 (23:59) 13.3 6.67 (07:50) 5.28 (14:40) 0 0 0 0 0
05-12-2019 15.3 (13:10) 11 (00:00) 13.2 16.11 (14:30) 12.5 (15:10) 12.9 2.3 10.6 0 0
04-12-2019 14.7 (00:00) 10.7 (00:00) 12.7 21.11 (14:50) 15.56 (11:20) 62.7 0 12.5 32.1 18.1
03-12-2019 14.7 (23:40) 7.5 (00:00) 11.1 15.28 (20:40) 11.94 (21:10) 0 0 0 0 0
02-12-2019 15.1 (15:20) 8.3 (00:00) 11.7 7.78 (01:10) 5.28 (04:00) 0 0 0 0 0
01-12-2019 18.2 (14:50) 11.5 (00:00) 14.9 6.67 (19:30) 4.44 (12:30) 0 0 0 0 0
30-11-2019 17.6 (12:40) 10 (00:00) 13.8 8.33 (06:10) 5.83 (06:10) 0 0 0 0 0
29-11-2019 19.5 (12:00) 11.8 (00:00) 15.7 7.78 (14:00) 6.67 (14:20) 0 0 0 0 0
28-11-2019 19.1 (12:10) 10 (00:00) 14.6 13.33 (13:40) 10.28 (13:40) 0 0 0 0 0
27-11-2019 20.1 (14:00) 11.6 (00:00) 15.9 10.28 (10:30) 8.06 (10:20) 0 0 0 0 0
26-11-2019 18.5 (15:10) 8 (00:00) 13.3 10.83 (15:00) 7.78 (13:40) 0 0 0 0 0
25-11-2019 17.6 (13:20) 8.7 (00:00) 13.2 7.78 (07:10) 5.83 (07:10) 0 0 0 0 0
24-11-2019 17.7 (15:30) 9.3 (00:00) 13.5 16.11 (00:30) 11.39 (00:40) 0 0 0 0 0
23-11-2019 17 (12:20) 11.6 (00:00) 14.3 16.11 (15:40) 11.11 (15:40) 0.5 0.5 0 0 0
22-11-2019 17.2 (14:00) 7.8 (00:00) 12.5 13.89 (19:50) 10 (22:00) 7.8 0 0.2 0 7.6
21-11-2019 17 (13:50) 6.8 (00:00) 11.9 10.28 (14:50) 7.5 (15:00) 0 0 0 0 0
20-11-2019 14.1 (14:10) 3.2 (00:00) 8.7 9.17 (05:00) 6.94 (08:00) 0 0 0 0 0
19-11-2019 14.2 (13:50) 5 (00:00) 9.6 10.83 (08:20) 8.06 (08:30) 0 0 0 0 0
18-11-2019 15.9 (15:00) 7.4 (00:00) 11.6 11.39 (10:50) 6.39 (16:20) 0 0 0 0 0
17-11-2019 15.4 (15:40) 4.4 (00:00) 9.9 8.89 (15:10) 6.39 (15:50) 0 0 0 0 0
16-11-2019 14.7 (15:10) 5.3 (00:00) 10 10.83 (08:40) 7.78 (08:40) 0 0 0 0 0
15-11-2019 14.1 (15:30) 5.1 (00:00) 9.6 10.83 (16:10) 8.06 (16:10) 0 0 0 0 0
14-11-2019 16.2 (06:50) 5.1 (00:00) 10.7 12.78 (05:50) 9.17 (05:50) 8.7 0.2 8.3 0.2 0
13-11-2019 15.1 (15:50) 8.6 (00:00) 11.9 12.78 (12:10) 5.28 (09:40) 0.9 0 0.8 0.1 0
12-11-2019 18.9 (15:20) 8.6 (00:00) 13.8 9.72 (01:50) 6.11 (08:20) 0 0 0 0 0

Gráficas

Temp. máximas Temp. mínimas Temp. medias Precipitaciones Rachas de viento máximas Velocidades máximas media en intervalos de 10 minutos

Datos horarios

Fecha y hora oficial Temperatura (ºC) Velocidad del viento (km/h) Dirección del viento Racha (km/h) Dirección de racha Precipitación (mm) Presión (hPa) Tendencia (hPa) Humedad (%)
2019-12-11 23:00:00 8.4 3 Norte 13 Noroeste 0 1016.7 0.3 76
2019-12-11 22:00:00 7 8 Oeste 13 Noroeste 0 1016.8 0.6 87
2019-12-11 21:00:00 8 9 Oeste 15 Oeste 0 1016.9 1.2 86
2019-12-11 20:00:00 9.8 10 Norte 13 Norte 0 1016.4 1.3 78
2019-12-11 19:00:00 11.1 9 Noroeste 13 Noroeste 0 1016.2 2.8 73
2019-12-11 18:00:00 11.8 10 Nordeste 22 Nordeste 0 1015.7 2.8 72
2019-12-11 17:00:00 11.6 17 Norte 35 Norte 0.1 1015.1 1.7 73
2019-12-11 16:00:00 13.5 15 Norte 22 Norte 0 1013.4 -0.8 54
2019-12-11 15:00:00 13.9 14 Norte 21 Norte 0 1012.9 -2.7 57
2019-12-11 14:00:00 14.5 10 Norte 22 Oeste 0 1013.4 -3.4 55
2019-12-11 13:00:00 15.2 16 Oeste 32 Norte 0 1014.2 -3.4 60
2019-12-11 12:00:00 14.2 6 Noroeste 22 Norte 0 1015.6 -2.3 59
2019-12-11 11:00:00 10.5 5 Norte 13 Norte 0 1016.8 -1.6 70
2019-12-11 10:00:00 7.5 10 Norte 24 Norte 0 1017.6 -0.9 78
2019-12-11 09:00:00 6.2 17 Norte 24 Norte 0 1017.9 -1.1 82
2019-12-11 08:00:00 6.4 17 Norte 26 Norte 0 1018.4 -1.3 82
2019-12-11 07:00:00 6.5 18 Norte 24 Norte 0 1018.5 -1.8 82
2019-12-11 06:00:00 6.1 17 Norte 26 Norte 0 1019 -2.1 84
2019-12-11 05:00:00 6.3 20 Norte 28 Norte 0 1019.7 -1.7 84
2019-12-11 04:00:00 6.6 18 Norte 26 Norte 0 1020.3 -1.7 83
2019-12-11 03:00:00 7 19 Norte 28 Norte 0 1021.1 -1 82
2019-12-11 02:00:00 7.2 18 Norte 24 Norte 0 1021.4 -0.7 82
2019-12-11 01:00:00 7.8 17 Norte 26 Norte 0 1022 -0.2 80
2019-12-11 00:00:00 8.1 17 Norte 24 Norte 0 1022.1 -0.4 80
2019-12-10 23:00:00 8.9 11 Norte 18 Norte 0 1022.1 -0.6 76
2019-12-10 22:00:00 9.5 12 Norte 21 Norte 0 1022.2 -0.1 73
2019-12-10 21:00:00 9.4 12 Noroeste 18 Noroeste 0 1022.5 0.7 74
2019-12-10 20:00:00 10.2 11 Norte 15 Norte 0 1022.7 1 69
2019-12-10 19:00:00 10.5 11 Norte 18 Norte 0 1022.3 0.9 69
2019-12-10 18:00:00 11.6 9 Norte 17 Norte 0 1021.8 0.1 64
2019-12-10 17:00:00 13.2 11 Norte 21 Norte 0 1021.7 -0.4 58
2019-12-10 16:00:00 13.5 13 Norte 22 Norte 0 1021.4 -1.5 58
2019-12-10 15:00:00 13.9 19 Norte 37 Norte 0 1021.7 -2.1 53
2019-12-10 14:00:00 14.3 8 Nordeste 15 Nordeste 0 1022.1 -2.1 56
2019-12-10 13:00:00 14.5 6 Nordeste 18 Norte 0 1022.9 -0.9 58
2019-12-10 12:00:00 13.7 7 Nordeste 15 Nordeste 0 1023.8 0 59
2019-12-10 11:00:00 11.3 9 Norte 13 Norte 0 1024.2 0.4 63
2019-12-10 10:00:00 9.4 13 Norte 21 Norte 0 1023.8 0.4 69
2019-12-10 09:00:00 6.7 18 Norte 26 Norte 0 1023.8 0.8 79
2019-12-10 08:00:00 6.6 4 Noroeste 9 Nordeste 0 1023.8 1.2 77
2019-12-10 07:00:00 7.1 4 Nordeste 15 Noroeste 0 1023.4 0.7 76
2019-12-10 06:00:00 7.9 9 Norte 15 Norte 0 1023 0.5 73
2019-12-10 05:00:00 9.6 14 Nordeste 21 Nordeste 0 1022.6 0.4 65
2019-12-10 04:00:00 8.1 12 Nordeste 17 Nordeste 0 1022.7 0 73
2019-12-10 03:00:00 8.2 7 Norte 11 Norte 0 1022.5 -0.4 70
2019-12-10 02:00:00 8.2 11 Noroeste 18 Noroeste 0 1022.2 0 70
2019-12-10 01:00:00 8.6 5 Noroeste 13 Norte 0 1022.7 0.8 69
2019-12-10 00:00:00 10.6 4 Nordeste 15 Noroeste 0 1022.9 1.2 59
2019-12-09 23:00:00 11.7 10 Norte 28 Noroeste 0 1022.2 1.4 55
2019-12-09 22:00:00 12.6 9 Noroeste 15 Oeste 0 1021.9 2.1 52
2019-12-09 21:00:00 13.4 7 Sur 21 Nordeste 0 1021.7 2.2 50
2019-12-09 20:00:00 13 9 Norte 24 Nordeste 0 1020.8 1.8 55
2019-12-09 19:00:00 14.3 4 Sur 18 Oeste 0 1019.8 1.6 54
2019-12-09 18:00:00 14.4 7 Sudoeste 21 Noroeste 0 1019.5 1.4 53
2019-12-09 17:00:00 16.1 16 Noroeste 39 Noroeste 0 1019 0.9 49
2019-12-09 16:00:00 16.6 27 Noroeste 39 Noroeste 0 1018.2 -0.9 49
2019-12-09 15:00:00 16.8 30 Noroeste 46 Noroeste 0 1018.1 -1.3 47
2019-12-09 14:00:00 16.7 23 Noroeste 48 Noroeste 0 1018.1 -2.2 47
2019-12-09 13:00:00 16 18 Noroeste 54 Norte 0 1019.1 -0.6 49
2019-12-09 12:00:00 15.3 27 Norte 42 Norte 0 1019.4 -0.5 49
2019-12-09 11:00:00 13.8 22 Norte 26 Norte 0 1020.3 0.7 55
2019-12-09 10:00:00 12.6 8 Noroeste 33 Oeste 0 1019.7 1.1 56
2019-12-09 09:00:00 10.4 9 Norte 28 Nordeste 0 1019.9 1.2 69
2019-12-09 08:00:00 10.4 19 Norte 30 Norte 0 1019.6 0.6 65
2019-12-09 07:00:00 10 23 Norte 33 Norte 0 1018.6 -0.6 79
2019-12-09 06:00:00 9.7 19 Norte 32 Norte 0 1018.7 -0.9 84
2019-12-09 05:00:00 9.5 24 Norte 33 Norte 0 1019 -0.1 84
2019-12-09 04:00:00 9.5 21 Norte 32 Norte 0 1019.2 -0.3 82
2019-12-09 03:00:00 9.6 22 Norte 32 Norte 0 1019.6 0.2 81
2019-12-09 02:00:00 10 18 Norte 28 Norte 0 1019.1 -0.5 79
2019-12-09 01:00:00 10.2 18 Norte 35 Norte 0 1019.5 -0.1 78
2019-12-09 00:00:00 10 15 Norte 33 Norte 0 1019.4 -0.5 80
2019-12-08 23:00:00 9.4 17 Norte 26 Norte 0 1019.6 -0.5 82
2019-12-08 22:00:00 9.7 21 Norte 30 Norte 0 1019.6 -0.3 81
2019-12-08 21:00:00 9.9 15 Norte 24 Norte 0 1019.9 0 80
2019-12-08 20:00:00 10.2 14 Norte 24 Norte 0 1020.1 0.3 79
2019-12-08 19:00:00 11 15 Norte 21 Norte 0 1019.9 0.1 77
2019-12-08 18:00:00 11.4 11 Norte 18 Norte 0 1019.9 0.1 76
2019-12-08 17:00:00 13.4 11 Norte 28 Norte 0 1019.8 -0.7 70
2019-12-08 16:00:00 14.8 11 Noroeste 26 Oeste 0 1019.8 -1.3 71
2019-12-08 15:00:00 14.7 14 Oeste 22 Norte 0 1019.8 -2.1 72
2019-12-08 14:00:00 13.8 13 Norte 24 Norte 0 1020.5 -2 67
2019-12-08 13:00:00 13.1 14 Norte 24 Norte 0 1021.1 -1.6 69
2019-12-08 12:00:00 12.1 17 Norte 30 Norte 0 1021.9 -0.6 72
2019-12-08 11:00:00 10.2 22 Norte 32 Norte 0 1022.5 0.3 78
2019-12-08 10:00:00 8.2 26 Norte 33 Norte 0 1022.7 0.8 84
2019-12-08 09:00:00 6.8 24 Norte 33 Norte 0 1022.5 0.7 88
2019-12-08 08:00:00 6.6 26 Norte 35 Norte 0 1022.2 0.3 88
2019-12-08 07:00:00 6.7 25 Norte 32 Norte 0 1021.9 -0.5 89
2019-12-08 06:00:00 6.8 24 Norte 32 Norte 0 1021.8 -1 90
2019-12-08 05:00:00 7.2 19 Norte 30 Norte 0 1021.9 -1 89
2019-12-08 04:00:00 7.7 21 Norte 28 Norte 0 1022.4 -0.9 88
2019-12-08 03:00:00 7.9 19 Norte 26 Norte 0 1022.8 -0.6 88
2019-12-08 02:00:00 8.2 18 Norte 24 Norte 0 1022.9 -0.2 87
2019-12-08 01:00:00 8.8 17 Norte 32 Norte 0 1023.3 0.4 85
2019-12-08 00:00:00 9.5 20 Norte 28 Norte 0 1023.4 1.1 83
2019-12-07 23:00:00 9.7 19 Norte 32 Norte 0 1023.1 0.9 84
2019-12-07 22:00:00 10.3 21 Norte 37 Norte 0 1022.9 0.9 83
2019-12-07 21:00:00 11.1 16 Norte 24 Norte 0 1022.3 0.7 80
2019-12-07 20:00:00 11.3 15 Norte 18 Norte 0 1022.2 1 83
2019-12-07 19:00:00 12 4 Norte 9 Norte 0 1022 1 89
2019-12-07 18:00:00 13.6 5 Oeste 15 Sudoeste 0 1021.6 0.6 85
2019-12-07 17:00:00 14.8 12 Sudoeste 17 Sudoeste 0 1021.2 -0.3 79
2019-12-07 16:00:00 15.5 13 Oeste 18 Sudoeste 0 1021 -1.2 75
2019-12-07 15:00:00 15.9 13 Sudoeste 18 Sudoeste 0 1021 -1.7 71
2019-12-07 14:00:00 16 12 Sudoeste 18 Norte 0 1021.5 -1.6 68
2019-12-07 13:00:00 15.7 13 Norte 22 Norte 0 1022.2 -0.8 64
2019-12-07 12:00:00 14.2 19 Norte 28 Norte 0 1022.7 0.1 69
2019-12-07 11:00:00 12.7 19 Norte 28 Norte 0 1023.1 0.9 74
2019-12-07 10:00:00 11 15 Norte 26 Norte 0 1023 1 81
2019-12-07 09:00:00 10.1 17 Norte 26 Norte 0 1022.6 0.8 84
2019-12-07 08:00:00 9.5 18 Norte 26 Norte 0 1022.2 0 87
2019-12-07 07:00:00 8.8 13 Norte 17 Norte 0 1022 -0.5 91
2019-12-07 06:00:00 8.5 5 Noroeste 11 Oeste 0 1021.8 -0.7 93
2019-12-07 05:00:00 8.5 5 Norte 11 Norte 0 1022.2 -0.2 91
2019-12-07 04:00:00 9.6 8 Nordeste 13 Nordeste 0 1022.5 0 88
2019-12-07 03:00:00 9.6 7 Norte 17 Norte 0 1022.5 -0.3 88
2019-12-07 02:00:00 9.8 14 Norte 21 Norte 0 1022.4 -0.3 89
2019-12-07 01:00:00 9.9 15 Norte 18 Norte 0 1022.5 -0.1 89
2019-12-07 00:00:00 9.9 10 Norte 18 Norte 0 1022.8 0.3 90
2019-12-06 23:00:00 10.2 12 Norte 15 Norte 0 1022.7 0.4 89
2019-12-06 22:00:00 10.8 10 Norte 18 Norte 0 1022.6 0.5 87
2019-12-06 21:00:00 11.5 11 Norte 17 Norte 0 1022.5 0.8 87
2019-12-06 20:00:00 11.8 5 Norte 13 Oeste 0 1022.3 0.8 85
2019-12-06 19:00:00 12.7 10 Oeste 17 Oeste 0 1022.1 0.7 83
2019-12-06 18:00:00 13.9 14 Oeste 21 Oeste 0 1021.7 0.3 79
2019-12-06 17:00:00 15 17 Sudoeste 22 Sudoeste 0 1021.5 -0.5 74
2019-12-06 16:00:00 16 17 Sudoeste 24 Sudoeste 0 1021.4 -1.3 67
2019-12-06 15:00:00 16.4 18 Sudoeste 24 Oeste 0 1021.4 -2.3 62
2019-12-06 14:00:00 16.6 14 Sudoeste 18 Sudoeste 0 1022 -2.1 61
2019-12-06 13:00:00 16.6 10 Oeste 17 Oeste 0 1022.7 -1.2 65
2019-12-06 12:00:00 14.5 11 Norte 21 Norte 0 1023.7 0.4 76
2019-12-06 11:00:00 12.8 17 Norte 24 Norte 0 1024.1 1.3 80
2019-12-06 10:00:00 12.1 15 Norte 18 Norte 0 1023.9 1.4 84
2019-12-06 09:00:00 11.4 14 Norte 22 Norte 0 1023.3 1.3 85
2019-12-06 08:00:00 11.4 18 Norte 24 Norte 0 1022.8 0.8 85
2019-12-06 07:00:00 11 12 Norte 17 Norte 0 1022.5 0.4 88
2019-12-06 06:00:00 11 13 Norte 21 Norte 0 1022 -0.1 89
2019-12-06 05:00:00 10.8 12 Norte 21 Norte 0 1022 0 90
2019-12-06 04:00:00 11.1 17 Norte 22 Norte 0 1022.1 0 88
2019-12-06 03:00:00 11.3 13 Norte 18 Norte 0 1022.1 -0.1 87
2019-12-06 02:00:00 11.4 10 Norte 21 Nordeste 0 1022 0 86
2019-12-06 01:00:00 11.7 9 Norte 15 Norte 0 1022.1 0.5 83
2019-12-06 00:00:00 11.6 12 Norte 15 Norte 0 1022.2 1 84
2019-12-05 23:00:00 11.8 10 Norte 28 Norte 0 1022 0.7 83
2019-12-05 22:00:00 12.2 12 Norte 26 Norte 0 1021.6 0.9 82
2019-12-05 21:00:00 12.8 14 Nordeste 39 Norte 0 1021.2 1.3 79
2019-12-05 20:00:00 13.7 19 Nordeste 46 Nordeste 0 1021.3 2.1 75
2019-12-05 19:00:00 12.6 14 Norte 32 Norte 0 1020.7 2.4 81
2019-12-05 18:00:00 13 15 Norte 30 Norte 0 1019.9 2.4 79
2019-12-05 17:00:00 13.6 20 Nordeste 54 Este 0 1019.2 1.8 79
2019-12-05 16:00:00 14.6 31 Nordeste 58 Este 0 1018.3 1.2 79
2019-12-05 15:00:00 15.2 43 Este 58 Este 0 1017.5 0.4 81
2019-12-05 14:00:00 14.6 33 Nordeste 52 Este 0 1017.4 0.3 84
2019-12-05 13:00:00 13.6 29 Nordeste 54 Nordeste 0 1017.1 0.4 77
2019-12-05 12:00:00 12.2 18 Norte 42 Norte 0.2 1017.1 1.2 91
2019-12-05 11:00:00 11.7 16 Norte 37 Norte 2 1017.1 2 95
2019-12-05 10:00:00 11.5 16 Norte 42 Norte 2.2 1016.7 2.3 96
2019-12-05 09:00:00 11.3 17 Norte 42 Norte 2.7 1015.9 2.2 97
2019-12-05 08:00:00 12 18 Nordeste 37 Norte 2.2 1015.1 1.7 92
2019-12-05 07:00:00 12.2 23 Nordeste 32 Nordeste 1.3 1014.4 1.2 91
2019-12-05 06:00:00 11.9 14 Nordeste 24 Nordeste 0.4 1013.7 0.7 94
2019-12-05 05:00:00 12.3 13 Nordeste 41 Nordeste 0 1013.4 1.2 94
2019-12-05 04:00:00 12.1 26 Nordeste 41 Nordeste 0 1013.2 1.2 96
2019-12-05 03:00:00 11.7 23 Nordeste 35 Nordeste 0 1013 1.4 100
2019-12-05 02:00:00 11.7 18 Nordeste 33 Este 0.2 1012.2 0.7 100
2019-12-05 01:00:00 11.2 14 Norte 28 Norte 1.7 1012 1.2 100
2019-12-05 00:00:00 11 17 Norte 35 Nordeste 7.1 1011.6 2 100
2019-12-04 23:00:00 11.6 30 Nordeste 46 Nordeste 6.2 1011.5 2.6 100
2019-12-04 22:00:00 11.4 31 Nordeste 52 Nordeste 2.8 1010.8 3.2 99
2019-12-04 21:00:00 12 46 Este 61 Este 0.3 1009.6 2.6 98
2019-12-04 20:00:00 11.7 33 Nordeste 74 Nordeste 0.5 1008.9 1.2 99
2019-12-04 19:00:00 12.3 51 Nordeste 68 Nordeste 1.2 1007.6 0.1 99
2019-12-04 18:00:00 10.9 37 Nordeste 58 Nordeste 4.7 1007 0 100
2019-12-04 17:00:00 11.6 30 Nordeste 48 Este 5.9 1007.7 1 100
2019-12-04 16:00:00 11.9 39 Este 67 Este 9.5 1007.5 0.1 100
2019-12-04 15:00:00 12 48 Nordeste 76 Nordeste 8.3 1007 -1.6 99
2019-12-04 14:00:00 12.2 44 Nordeste 65 Nordeste 1.6 1006.7 -2.2 99
2019-12-04 13:00:00 12.2 43 Nordeste 71 Nordeste 2.1 1007.4 -1.4 99
2019-12-04 12:00:00 12.3 51 Este 72 Este 3.4 1008.6 -0.5 99
2019-12-04 11:00:00 12.6 53 Este 72 Este 0.2 1008.9 -0.1 97
2019-12-04 10:00:00 11.9 45 Nordeste 63 Nordeste 4.1 1008.8 -0.1 99
2019-12-04 09:00:00 11.7 44 Nordeste 71 Este 4.8 1009.1 -0.8 98
2019-12-04 08:00:00 13.3 49 Este 72 Nordeste 0 1009 -1 84
2019-12-04 07:00:00 13.7 44 Nordeste 63 Nordeste 0 1008.9 -2.7 79
2019-12-04 06:00:00 14.1 42 Nordeste 67 Este 0 1009.9 -2.4 74
2019-12-04 05:00:00 13.6 54 Nordeste 72 Este 0 1010 -2.9 79
2019-12-04 04:00:00 14.1 45 Nordeste 65 Este 0 1011.6 -2.4 74
2019-12-04 03:00:00 14.2 47 Nordeste 63 Este 0 1012.3 -2.5 73
2019-12-04 02:00:00 14.4 40 Nordeste 58 Nordeste 0 1012.9 -2.3 70
2019-12-04 01:00:00 14.7 39 Este 52 Este 0 1014 -1.1 68
2019-12-04 00:00:00 14.7 38 Este 55 Este 0 1014.8 -0.6 68
2019-12-03 23:00:00 14.4 33 Nordeste 52 Este 0 1015.2 -0.2 67
2019-12-03 22:00:00 14.2 43 Este 55 Este 0 1015.1 -0.1 68
2019-12-03 21:00:00 14.3 39 Este 55 Este 0 1015.4 0.2 67
2019-12-03 20:00:00 14.3 36 Nordeste 50 Nordeste 0 1015.4 0.2 65
2019-12-03 19:00:00 14.1 34 Nordeste 52 Nordeste 0 1015.2 -0.5 65
2019-12-03 18:00:00 14.1 28 Nordeste 45 Nordeste 0 1015.2 -0.8 64
2019-12-03 17:00:00 14.4 25 Nordeste 45 Este 0 1015.2 -1.4 61
2019-12-03 16:00:00 14.4 32 Este 41 Este 0 1015.7 -1.7 60
2019-12-03 15:00:00 13.7 18 Nordeste 35 Nordeste 0 1016 -2.2 55
2019-12-03 14:00:00 12.7 20 Norte 28 Norte 0 1016.6 -2.1 61
2019-12-03 13:00:00 11.9 17 Norte 32 Norte 0 1017.4 -1 63
2019-12-03 12:00:00 11.4 24 Norte 35 Norte 0 1018.2 -0.2 65
2019-12-03 11:00:00 9.8 24 Norte 32 Norte 0 1018.7 0.5 71
2019-12-03 10:00:00 9.6 23 Norte 33 Norte 0 1018.4 0.4 72
2019-12-03 09:00:00 8.5 21 Norte 30 Norte 0 1018.4 0.9 76
2019-12-03 08:00:00 8.4 21 Norte 30 Norte 0 1018.2 0.6 79
2019-12-03 07:00:00 8.2 18 Norte 28 Norte 0 1018 0.4 79
2019-12-03 06:00:00 8.3 17 Norte 30 Nordeste 0 1017.5 -0.3 79
2019-12-03 05:00:00 7.6 16 Norte 26 Norte 0 1017.6 0 83
2019-12-03 04:00:00 7.5 18 Norte 28 Norte 0 1017.6 -0.2 84
2019-12-03 03:00:00 7.8 22 Norte 30 Norte 0 1017.8 -0.3 83
2019-12-03 02:00:00 8.4 21 Norte 33 Nordeste 0 1017.6 -0.4 81
2019-12-03 01:00:00 8.4 16 Norte 22 Norte 0 1017.8 0 83
2019-12-03 00:00:00 9.1 17 Norte 24 Norte 0 1018.1 0.6 80
2019-12-02 23:00:00 9.2 13 Norte 18 Norte 0 1018 0.9 86
2019-12-02 22:00:00 9.1 4 Noroeste 15 Norte 0 1017.8 1.1 89
2019-12-02 21:00:00 9.6 11 Norte 17 Norte 0 1017.5 0.9 88
2019-12-02 20:00:00 10.2 9 Norte 13 Noroeste 0 1017.1 1 87
2019-12-02 19:00:00 11.2 11 Noroeste 15 Sudoeste 0 1016.7 0.9 82
2019-12-02 18:00:00 12.9 8 Sudoeste 15 Sudoeste 0 1016.6 0.8 75
2019-12-02 17:00:00 14 8 Sudoeste 13 Sudoeste 0 1016.1 0.1 67
2019-12-02 16:00:00 14.7 10 Sudoeste 17 Sudoeste 0 1015.8 -0.4 61
2019-12-02 15:00:00 14.5 11 Sudoeste 15 Sudoeste 0 1015.8 -0.9 60
2019-12-02 14:00:00 14.2 8 Norte 18 Nordeste 0 1016 -0.8 59
2019-12-02 13:00:00 14.1 14 Norte 18 Norte 0 1016.2 -0.1 62
2019-12-02 12:00:00 11.7 13 Norte 21 Norte 0 1016.7 1.1 70
2019-12-02 11:00:00 11.9 12 Norte 21 Norte 0 1016.8 1.7 70
2019-12-02 10:00:00 10.5 13 Norte 18 Norte 0 1016.3 1.9 79
2019-12-02 09:00:00 8.7 14 Norte 21 Norte 0 1015.6 1.8 86
2019-12-02 08:00:00 8.4 13 Norte 22 Norte 0 1015.1 1.1 88
2019-12-02 07:00:00 8.6 15 Norte 21 Norte 0 1014.4 0.5 89
2019-12-02 06:00:00 8.8 14 Norte 22 Norte 0 1013.8 0.2 87
2019-12-02 05:00:00 9.3 17 Norte 22 Norte 0 1014 0.3 86
2019-12-02 04:00:00 10 19 Norte 26 Norte 0 1013.9 0.7 86
2019-12-02 03:00:00 10.4 15 Norte 24 Norte 0 1013.6 -0.1 85
2019-12-02 02:00:00 10.8 15 Norte 28 Norte 0 1013.7 0.4 83
2019-12-02 01:00:00 11.2 18 Norte 24 Norte 0 1013.2 0.1 82
2019-12-02 00:00:00 11.9 11 Norte 15 Norte 0 1013.7 0.9 87
2019-12-01 23:00:00 12 10 Norte 21 Este 0 1013.3 0.8 84
2019-12-01 22:00:00 14.2 16 Sudeste 22 Sudeste 0 1013.1 1.4 82
2019-12-01 21:00:00 13.7 14 Este 21 Este 0 1012.8 1.7 85
2019-12-01 20:00:00 14.4 15 Sudeste 24 Sudeste 0 1012.5 1.7 83
2019-12-01 19:00:00 14.8 11 Sudeste 17 Sudeste 0 1011.7 1.2 79
2019-12-01 18:00:00 15 7 Sur 13 Sur 0 1011.1 0.7 76
2019-12-01 17:00:00 15.5 9 Sudoeste 13 Sudoeste 0 1010.8 0.2 66
2019-12-01 16:00:00 16.6 12 Sudoeste 18 Sudoeste 0 1010.5 -0.5 57
2019-12-01 15:00:00 17.1 14 Sudoeste 17 Sudoeste 0 1010.4 -1.2 53
2019-12-01 14:00:00 17.3 12 Norte 21 Nordeste 0 1010.6 -1.6 51
2019-12-01 13:00:00 16.8 16 Norte 21 Norte 0 1011 -0.9 51
2019-12-01 12:00:00 16.8 13 Norte 21 Norte 0 1011.6 0.2 54
2019-12-01 11:00:00 15.2 14 Norte 18 Norte 0 1012.2 1.1 65
2019-12-01 10:00:00 14.2 11 Norte 17 Norte 0 1011.9 1.1 75
2019-12-01 09:00:00 12.6 8 Norte 13 Norte 0 1011.4 1 85
2019-12-01 08:00:00 12.2 9 Norte 11 Norte 0 1011.1 0.4 88
2019-12-01 07:00:00 12.5 5 Noroeste 8 Norte 0 1010.8 -0.6 85
2019-12-01 06:00:00 11.5 3 Norte 9 Este 0 1010.4 -1.5 91
2019-12-01 05:00:00 11.6 0 Calma 13 Nordeste 0 1010.7 -1 94
2019-12-01 04:00:00 12 10 Norte 21 Norte 0 1011.4 -1 93
2019-12-01 03:00:00 12.7 5 Norte 17 Norte 0 1011.9 -0.7 91
2019-12-01 02:00:00 12.5 11 Norte 17 Norte 0 1011.7 -1.3 91
2019-12-01 01:00:00 12.2 11 Norte 15 Norte 0 1012.4 -1 92
2019-12-01 00:00:00 12.3 10 Norte 13 Norte 0 1012.6 -1 92
2019-11-30 23:00:00 12.3 3 Nordeste 9 Norte 0 1013 -0.9 92
2019-11-30 22:00:00 13.2 8 Norte 13 Norte 0 1013.4 -0.6 89
2019-11-30 21:00:00 14.2 9 Oeste 18 Oeste 0 1013.6 -0.6 88
2019-11-30 20:00:00 15.1 15 Oeste 22 Oeste 0 1013.9 -0.6 90
2019-11-30 19:00:00 15.1 11 Oeste 15 Oeste 0 1014 -0.9 93
2019-11-30 18:00:00 15.1 12 Oeste 15 Oeste 0 1014.2 -1.4 92
2019-11-30 17:00:00 16 11 Sudoeste 24 Sudoeste 0 1014.5 -1.9 87
2019-11-30 16:00:00 16.5 18 Sudoeste 24 Sudoeste 0 1014.9 -2.4 84
2019-11-30 15:00:00 16.5 18 Sudoeste 26 Sudoeste 0 1015.6 -2.6 81
2019-11-30 14:00:00 16.7 20 Sudoeste 28 Sudoeste 0 1016.4 -2.7 78
2019-11-30 13:00:00 17.3 17 Sudoeste 21 Sudoeste 0 1017.3 -2 74
2019-11-30 12:00:00 17 11 Sudoeste 21 Noroeste 0 1018.2 -0.8 74
2019-11-30 11:00:00 14.4 8 Norte 22 Norte 0 1019.1 -0.2 76
2019-11-30 10:00:00 12.1 17 Norte 24 Norte 0 1019.3 -0.1 83
2019-11-30 09:00:00 10.8 20 Norte 26 Norte 0 1019 -0.6 88
2019-11-30 08:00:00 10.1 20 Norte 28 Norte 0 1019.3 -0.5 90
2019-11-30 07:00:00 10.4 18 Norte 30 Norte 0 1019.4 -0.6 91
2019-11-30 06:00:00 10.9 18 Norte 26 Norte 0 1019.6 -0.8 90
2019-11-30 05:00:00 11.3 17 Norte 24 Norte 0 1019.8 -0.6 92
2019-11-30 04:00:00 11.4 15 Norte 21 Norte 0 1020 -0.5 94
2019-11-30 03:00:00 11.8 13 Norte 17 Norte 0 1020.4 -0.2 94
2019-11-30 02:00:00 12.3 12 Norte 22 Nordeste 0 1020.4 -0.2 93
2019-11-30 01:00:00 13 10 Norte 13 Norte 0 1020.5 0 92
2019-11-30 00:00:00 12 11 Norte 15 Norte 0 1020.6 0.3 93
2019-11-29 23:00:00 12.6 10 Norte 26 Norte 0 1020.6 0.5 92
2019-11-29 22:00:00 13.7 11 Norte 21 Norte 0 1020.5 0.8 88
2019-11-29 21:00:00 14.4 13 Nordeste 21 Nordeste 0 1020.3 1.2 88
2019-11-29 20:00:00 14.6 12 Este 22 Nordeste 0 1020.1 1.7 89
2019-11-29 19:00:00 14.9 16 Nordeste 28 Nordeste 0 1019.7 2 89
2019-11-29 18:00:00 15.8 14 Nordeste 21 Nordeste 0 1019.1 2 89
2019-11-29 17:00:00 16 15 Nordeste 22 Este 0 1018.4 1.4 87
2019-11-29 16:00:00 16.1 18 Este 26 Este 0 1017.7 0.7 86
2019-11-29 15:00:00 16.6 19 Este 28 Este 0 1017.1 -0.1 81
2019-11-29 14:00:00 16.9 23 Este 28 Este 0 1017 0.1 78
2019-11-29 13:00:00 17.8 14 Sudeste 18 Sudeste 0 1017 0.9 67
2019-11-29 12:00:00 19.3 5 Sudeste 13 Sudeste 0 1017.2 1.8 56
2019-11-29 11:00:00 18.3 2 Sur 11 Este 0 1016.9 2.3 59
2019-11-29 10:00:00 14.9 3 Noroeste 5 Noroeste 0 1016.1 2.1 72
2019-11-29 09:00:00 12.9 2 Noroeste 9 Nordeste 0 1015.4 1.9 75
2019-11-29 08:00:00 11.9 0 Calma 8 Norte 0 1014.6 1.9 76
2019-11-29 07:00:00 12 4 Norte 8 Norte 0 1014 1.5 76
2019-11-29 06:00:00 12.8 4 Nordeste 9 Este 0 1013.5 0.9 71
2019-11-29 05:00:00 14.1 3 Este 8 Nordeste 0 1012.7 0.5 64
2019-11-29 04:00:00 13.8 2 Nordeste 9 Este 0 1012.5 0 64
2019-11-29 03:00:00 15.2 3 Sur 9 Este 0 1012.6 0.2 58
2019-11-29 02:00:00 15.5 6 Nordeste 18 Noroeste 0 1012.2 -0.3 57
2019-11-29 01:00:00 14.7 9 Noroeste 21 Oeste 0 1012.5 -0.2 61
2019-11-29 00:00:00 15.2 15 Oeste 28 Oeste 0 1012.4 -0.1 60
2019-11-28 23:00:00 14.7 21 Oeste 30 Oeste 0 1012.5 -0.1 82
2019-11-28 22:00:00 15.5 15 Oeste 24 Oeste 0 1012.7 0.3 78
2019-11-28 21:00:00 15.9 14 Oeste 21 Oeste 0 1012.5 0.2 69
2019-11-28 20:00:00 15.8 15 Oeste 24 Oeste 0 1012.6 1 71
2019-11-28 19:00:00 16 17 Oeste 24 Oeste 0 1012.4 0.8 59
2019-11-28 18:00:00 16.4 22 Oeste 35 Oeste 0 1012.3 0.9 60
2019-11-28 17:00:00 17.4 24 Oeste 32 Oeste 0 1011.6 -0.4 65
2019-11-28 16:00:00 18.4 26 Oeste 45 Oeste 0 1011.6 -0.5 58
2019-11-28 15:00:00 18.5 36 Oeste 46 Oeste 0 1011.4 -1.3 57
2019-11-28 14:00:00 18.5 34 Oeste 48 Sudoeste 0 1012 -0.8 58
2019-11-28 13:00:00 18.7 30 Oeste 42 Oeste 0 1012.1 -0.1 56
2019-11-28 12:00:00 18.8 26 Oeste 39 Oeste 0 1012.7 1.2 54
2019-11-28 11:00:00 18.4 22 Oeste 32 Oeste 0 1012.8 2.1 51
2019-11-28 10:00:00 17 15 Oeste 22 Oeste 0 1012.2 2.1 56
2019-11-28 09:00:00 13.6 15 Oeste 21 Noroeste 0 1011.5 2 67
2019-11-28 08:00:00 11.3 12 Oeste 18 Oeste 0 1010.7 1.6 73
2019-11-28 07:00:00 12.7 10 Sudoeste 22 Oeste 0 1010.1 1.5 66
2019-11-28 06:00:00 13.3 17 Oeste 28 Oeste 0 1009.5 0.4 64
2019-11-28 05:00:00 13.4 19 Oeste 32 Oeste 0 1009.1 0.1 63
2019-11-28 04:00:00 14.3 24 Oeste 33 Oeste 0 1008.6 -0.4 60
2019-11-28 03:00:00 14.2 24 Oeste 32 Oeste 0 1009.1 0 63
2019-11-28 02:00:00 12.7 15 Oeste 18 Oeste 0 1009 -0.1 70
2019-11-28 01:00:00 12.6 12 Oeste 18 Oeste 0 1009 -0.2 72
2019-11-28 00:00:00 14.1 15 Oeste 22 Oeste 0 1009.1 -0.1 59
2019-11-27 23:00:00 15 18 Oeste 22 Oeste 0 1009.1 0 60
2019-11-27 22:00:00 13.1 7 Oeste 11 Oeste 0 1009.2 0.9 60
2019-11-27 21:00:00 14.7 4 Sudoeste 13 Oeste 0 1009.2 1.3 51
2019-11-27 20:00:00 14.9 2 Sudoeste 15 Oeste 0 1009.1 1.6 51
2019-11-27 19:00:00 16.1 4 Oeste 13 Oeste 0 1008.3 0.7 46
2019-11-27 18:00:00 16.5 8 Nordeste 18 Norte 0 1007.9 0.6 48
2019-11-27 17:00:00 18.2 9 Noroeste 33 Oeste 0 1007.5 0 43
2019-11-27 16:00:00 18.8 14 Oeste 30 Oeste 0 1007.6 0.5 46
2019-11-27 15:00:00 19 24 Oeste 33 Noroeste 0 1007.3 -0.1 43
2019-11-27 14:00:00 19.9 16 Oeste 37 Oeste 0 1007.5 0 39
2019-11-27 06:00:00 14.8 15 Sudoeste 26 Sudoeste 0 1003.7 0.2 75
2019-11-27 05:00:00 14.5 17 Sudoeste 26 Sudoeste 0 1003.4 -0.1 76
2019-11-27 04:00:00 14.6 12 Sudoeste 21 Oeste 0 1003.1 -1.2 85
2019-11-27 03:00:00 11.8 7 Oeste 13 Oeste 0 1003.5 -2 89
2019-11-27 02:00:00 12.4 0 Calma 9 Norte 0 1003.5 -2.2 85
2019-11-27 01:00:00 12.8 4 Norte 9 Noroeste 0 1004.3 -2.4 86
2019-11-27 00:00:00 13.2 0 Calma 5 Nordeste 0 1005.5 -1.7 78
2019-11-26 23:00:00 13.7 3 Norte 15 Noroeste 0 1005.7 -1.5 78
2019-11-26 22:00:00 14.9 13 Oeste 32 Oeste 0 1006.7 -0.8 71
2019-11-26 21:00:00 15.1 18 Oeste 26 Oeste 0 1007.2 -0.5 86
2019-11-26 20:00:00 15.4 13 Oeste 28 Oeste 0 1007.2 -0.5 84
2019-11-26 19:00:00 15.3 15 Sudoeste 21 Sudoeste 0 1007.5 -0.5 87
2019-11-26 18:00:00 15.9 15 Sudoeste 28 Oeste 0 1007.7 -0.6 84
2019-11-26 17:00:00 17.1 18 Sudoeste 33 Oeste 0 1007.7 -1.2 75
2019-11-26 16:00:00 17.5 24 Oeste 33 Sudoeste 0 1008 -1.7 70
2019-11-26 15:00:00 18.3 27 Oeste 39 Sudoeste 0 1008.3 -2.7 65
2019-11-26 14:00:00 17.8 27 Sudoeste 37 Sudoeste 0 1008.9 -2.8 71
2019-11-26 13:00:00 17.6 22 Sudoeste 28 Sudoeste 0 1009.7 -1.9 69
2019-11-26 12:00:00 16.2 4 Norte 18 Norte 0 1011 -0.8 63
2019-11-26 11:00:00 13.4 15 Norte 21 Norte 0 1011.7 0.2 69
2019-11-26 10:00:00 10.9 14 Norte 21 Norte 0 1011.6 0.2 78
2019-11-26 09:00:00 8.7 9 Norte 17 Norte 0 1011.8 0.3 84
2019-11-26 08:00:00 8.1 13 Norte 24 Norte 0 1011.5 -0.2 85
2019-11-26 07:00:00 9 17 Norte 24 Norte 0 1011.4 -0.5 83
2019-11-26 06:00:00 9.2 19 Norte 26 Norte 0 1011.5 -0.9 85
2019-11-26 05:00:00 9.1 20 Norte 26 Norte 0 1011.7 -0.8 84
2019-11-26 04:00:00 9.1 20 Norte 26 Norte 0 1011.9 -1.2 84
2019-11-26 03:00:00 9.6 16 Norte 21 Norte 0 1012.4 -0.9 84
2019-11-26 02:00:00 9.8 14 Norte 26 Norte 0 1012.5 -0.8 84
2019-11-26 01:00:00 10.5 15 Norte 24 Norte 0 1013.1 -0.1 83
2019-11-26 00:00:00 11.1 18 Norte 24 Norte 0 1013.3 0.1 82
2019-11-25 23:00:00 11.4 14 Norte 21 Norte 0 1013.3 0.5 83
2019-11-25 22:00:00 10.7 3 Norte 9 Norte 0 1013.2 1 86
2019-11-25 21:00:00 11.5 5 Norte 9 Norte 0 1013.2 1.4 83
2019-11-25 20:00:00 11.8 5 Norte 8 Norte 0 1012.8 1.5 82
2019-11-25 19:00:00 13.1 3 Oeste 8 Oeste 0 1012.2 1.3 80
2019-11-25 18:00:00 13.5 4 Oeste 13 Oeste 0 1011.8 1.9 81
2019-11-25 17:00:00 14.6 9 Oeste 17 Sudoeste 0 1011.3 1.4 76
2019-11-25 16:00:00 16.1 14 Sudoeste 17 Sudoeste 0 1010.9 0.8 66
2019-11-25 15:00:00 16.7 10 Sudoeste 17 Sudoeste 0 1009.9 -0.7 59
2019-11-25 14:00:00 16.5 14 Sudoeste 18 Sudoeste 0 1009.9 -0.9 55
2019-11-25 13:00:00 17 7 Oeste 17 Noroeste 0 1010.1 -0.4 54
2019-11-25 12:00:00 15.6 13 Norte 24 Norte 0 1010.6 0.3 56
2019-11-25 11:00:00 14 20 Norte 26 Norte 0 1010.8 0.9 59
2019-11-25 10:00:00 12.4 12 Norte 17 Norte 0 1010.5 1.2 66
2019-11-25 09:00:00 10.4 9 Norte 21 Nordeste 0 1010.3 1.3 71
2019-11-25 08:00:00 9.5 15 Norte 28 Norte 0 1009.9 0.8 73
2019-11-25 07:00:00 8.8 18 Norte 26 Norte 0 1009.3 0.2 78
2019-11-25 06:00:00 9.5 15 Norte 24 Norte 0 1009 -0.3 74
2019-11-25 05:00:00 9.6 11 Norte 17 Norte 0 1009.1 -0.5 73
2019-11-25 04:00:00 9.2 8 Norte 11 Norte 0 1009.1 -0.8 76
2019-11-25 03:00:00 9.9 10 Oeste 13 Noroeste 0 1009.3 -0.6 72
2019-11-25 02:00:00 10.1 12 Norte 24 Nordeste 0 1009.6 -0.4 73
2019-11-25 01:00:00 10.2 10 Norte 18 Norte 0 1009.9 -0.2 72
2019-11-25 00:00:00 9.9 6 Oeste 18 Norte 0 1009.9 -0.3 74
2019-11-24 23:00:00 10.4 14 Norte 18 Norte 0 1010 -0.2 72
2019-11-24 22:00:00 10.5 7 Norte 17 Norte 0 1010.1 0.2 72
2019-11-24 21:00:00 11.5 13 Norte 17 Norte 0 1010.2 0.7 67
2019-11-24 20:00:00 11.6 11 Norte 13 Noroeste 0 1010.2 1.4 68
2019-11-24 19:00:00 12.6 9 Norte 11 Noroeste 0 1009.9 2 64
2019-11-24 18:00:00 13.8 6 Oeste 11 Sudoeste 0 1009.5 1.8 66
2019-11-24 17:00:00 15.5 7 Sudoeste 13 Sudoeste 0 1008.8 1.5 61
2019-11-24 16:00:00 16.7 8 Sudoeste 18 Oeste 0 1007.9 0.6 58
2019-11-24 15:00:00 17.4 12 Nordeste 21 Norte 0 1007.7 0.2 44
2019-11-24 14:00:00 17.1 12 Norte 26 Norte 0 1007.3 0.2 43
2019-11-24 13:00:00 16.1 17 Norte 24 Norte 0 1007.3 0.6 47
2019-11-24 12:00:00 14.8 16 Norte 28 Norte 0 1007.5 1.5 52
2019-11-24 11:00:00 13.2 18 Norte 32 Norte 0 1007.1 1.8 56
2019-11-24 10:00:00 11.9 20 Norte 32 Norte 0 1006.7 2 61
2019-11-24 09:00:00 10.7 14 Norte 21 Norte 0 1006 2.4 64
2019-11-24 08:00:00 9.4 13 Norte 17 Norte 0 1005.3 2.3 70
2019-11-24 07:00:00 9.9 10 Nordeste 15 Nordeste 0 1004.7 2.1 66
2019-11-24 06:00:00 10.3 9 Nordeste 22 Norte 0 1003.6 1.9 64
2019-11-24 05:00:00 10.7 15 Norte 26 Norte 0 1003 2.9 61
2019-11-24 04:00:00 10.9 15 Norte 24 Norte 0 1002.6 3 61
2019-11-24 03:00:00 11.9 21 Nordeste 30 Noroeste 0 1001.7 2.1 57
2019-11-24 02:00:00 12.1 26 Norte 50 Norte 0 1000.1 0.8 55
2019-11-24 01:00:00 12.3 36 Norte 58 Norte 0 999.6 0.5 55
2019-11-24 00:00:00 12.6 26 Norte 37 Norte 0 999.6 1.3 53
2019-11-23 23:00:00 12.6 4 Norte 24 Noroeste 0 999.3 1.7 54
2019-11-23 22:00:00 13 13 Oeste 22 Oeste 0 999.1 2.2 54
2019-11-23 21:00:00 13.6 5 Noroeste 33 Norte 0 998.3 3 53
2019-11-23 20:00:00 13.5 25 Norte 35 Norte 0 997.6 3.8 56
2019-11-23 19:00:00 13.4 20 Norte 41 Norte 0 996.9 4.2 58
2019-11-23 18:00:00 13.6 30 Norte 50 Norte 0 995.3 3.8 57
2019-11-23 17:00:00 14 28 Norte 50 Norte 0 993.8 2 55
2019-11-23 16:00:00 15.2 28 Norte 58 Norte 0 992.7 0.9 52
2019-11-23 15:00:00 15.5 23 Noroeste 54 Noroeste 0 991.5 -0.5 53
2019-11-23 14:00:00 16.6 27 Noroeste 46 Noroeste 0 991.8 -0.1 51
2019-11-23 13:00:00 16.7 28 Noroeste 42 Norte 0 991.8 0.5 53
2019-11-23 12:00:00 16.7 15 Noroeste 30 Oeste 0 992 1.5 52
2019-11-23 11:00:00 16.3 13 Noroeste 26 Oeste 0 991.9 2 53
2019-11-23 10:00:00 14.9 14 Oeste 24 Noroeste 0 991.3 1.9 60
2019-11-23 09:00:00 12.7 18 Noroeste 35 Noroeste 0 990.5 1.4 66
2019-11-23 08:00:00 12.7 21 Oeste 28 Oeste 0 989.9 1.2 70
2019-11-23 07:00:00 11.8 3 Oeste 8 Noroeste 0 989.4 0.7 87
2019-11-23 06:00:00 12.9 8 Oeste 18 Oeste 0 989.1 0.1 84
2019-11-23 05:00:00 13.4 15 Oeste 18 Oeste 0 988.7 -0.7 87
2019-11-23 04:00:00 13.9 8 Sudoeste 26 Noroeste 0 988.7 -1.7 84
2019-11-23 03:00:00 15.3 24 Oeste 41 Oeste 0 989 -2.5 87
2019-11-23 02:00:00 16 26 Sudoeste 39 Oeste 0.5 989.4 -3.2 94
2019-11-23 01:00:00 16.3 28 Sudoeste 46 Sudoeste 0 990.4 -3.6 91
2019-11-23 00:00:00 16.3 30 Sudoeste 41 Sudoeste 0 991.5 -3.4 92
2019-11-22 23:00:00 16 24 Sudoeste 48 Sudoeste 0 992.6 -3.1 92
2019-11-22 22:00:00 16.1 36 Sudoeste 48 Sudoeste 0.1 994 -2.5 92
2019-11-22 21:00:00 15.7 26 Sudoeste 48 Sudoeste 2.6 994.9 -2.6 95
2019-11-22 20:00:00 15.8 30 Sudoeste 50 Sudoeste 3.9 995.7 -2.5 93
2019-11-22 19:00:00 15.9 21 Sudoeste 28 Sudoeste 1 996.5 -2.3 91
2019-11-22 18:00:00 16 11 Sudoeste 24 Sudoeste 0 997.5 -2.3 84
2019-11-22 17:00:00 15.9 17 Sudoeste 30 Sudoeste 0 998.2 -2.6 79
2019-11-22 16:00:00 16.2 20 Sudoeste 33 Oeste 0 998.8 -3.3 76
2019-11-22 15:00:00 16.5 21 Sudoeste 30 Sudoeste 0 999.8 -3.7 72
2019-11-22 14:00:00 16.9 7 Sudoeste 15 Sur 0 1000.8 -3.7 72
2019-11-22 13:00:00 15.2 4 Nordeste 26 Nordeste 0 1002.1 -2.6 75
2019-11-22 12:00:00 13.2 14 Norte 22 Norte 0 1003.5 -1.8 78
2019-11-22 11:00:00 11.8 18 Norte 26 Norte 0 1004.5 -0.5 83
2019-11-22 10:00:00 8.8 21 Norte 30 Norte 0 1004.7 -0.6 89
2019-11-22 09:00:00 8.6 21 Norte 28 Norte 0 1005.3 -0.2 89
2019-11-22 08:00:00 7.8 22 Norte 28 Norte 0 1005 -0.8 89
2019-11-22 07:00:00 8 17 Norte 26 Norte 0.2 1005.3 -1 83
2019-11-22 06:00:00 8.4 18 Norte 28 Norte 0 1005.5 -1.3 80
2019-11-22 05:00:00 8 19 Norte 28 Norte 0 1005.8 -1.2 77
2019-11-22 04:00:00 8.5 21 Norte 28 Norte 0 1006.3 -1.3 76
2019-11-22 03:00:00 8.6 18 Norte 24 Norte 0 1006.8 -1.1 78
2019-11-22 02:00:00 9.9 15 Norte 30 Norte 0 1007 -0.9 76
2019-11-22 01:00:00 9.9 14 Norte 18 Norte 0 1007.6 -0.5 80
2019-11-22 00:00:00 9.8 9 Norte 13 Norte 0 1007.9 0.1 81
2019-11-21 23:00:00 10 8 Norte 18 Norte 0 1007.9 0.3 78
2019-11-21 22:00:00 -- 8 Oeste 13 Oeste 0 1008.1 0.7 --
2019-11-21 21:00:00 11.5 12 Oeste 17 Oeste 0 1007.8 0.8 79
2019-11-21 20:00:00 11.7 13 Oeste 15 Oeste 0 1007.6 1.1 76
2019-11-21 19:00:00 12.4 14 Oeste 24 Oeste 0 1007.4 1.2 70
2019-11-21 18:00:00 13.1 18 Oeste 30 Oeste 0 1007 0.9 68
2019-11-21 17:00:00 14.3 20 Oeste 32 Oeste 0 1006.5 0.3 63
2019-11-21 16:00:00 15.2 24 Oeste 35 Oeste 0 1006.2 -0.5 59
2019-11-21 15:00:00 15 27 Oeste 37 Oeste 0 1006.1 -1.6 59
2019-11-21 14:00:00 16.3 18 Sudoeste 24 Sudoeste 0 1006.2 -1.3 52
2019-11-21 13:00:00 15 5 Norte 9 Norte 0 1006.7 -0.5 58
2019-11-21 12:00:00 13.4 5 Norte 21 Norte 0 1007.7 0.4 61
2019-11-21 11:00:00 11.5 11 Norte 18 Norte 0 1007.5 0.5 66
2019-11-21 10:00:00 9.2 17 Norte 28 Norte 0 1007.2 0.3 72
2019-11-21 09:00:00 7.5 21 Norte 26 Norte 0 1007.3 0.6 78
2019-11-21 08:00:00 -- -- -- -- -- -- -- -- --
2019-11-21 07:00:00 -- -- -- -- -- -- -- -- --
2019-11-21 06:00:00 -- -- -- -- -- -- -- -- --
2019-11-21 05:00:00 -- -- -- -- -- -- -- -- --
2019-11-21 04:00:00 -- -- -- -- -- -- -- -- --
2019-11-21 03:00:00 -- -- -- -- -- -- -- -- --
2019-11-21 02:00:00 -- -- -- -- -- -- -- -- --
2019-11-21 01:00:00 -- -- -- -- -- -- -- -- --
2019-11-21 00:00:00 -- -- -- -- -- -- -- -- --
2019-11-20 23:00:00 -- -- -- -- -- -- -- -- --
2019-11-20 22:00:00 -- -- -- -- -- -- -- -- --
2019-11-20 21:00:00 -- -- -- -- -- -- -- -- --
2019-11-20 20:00:00 -- -- -- -- -- -- -- -- --
2019-11-20 19:00:00 10.7 4 Noroeste 8 Oeste 0 1009.3 -0.4 79
2019-11-20 18:00:00 11.6 6 Noroeste -- -- 0 1009.1 -0.9 76
2019-11-20 17:00:00 13 5 Oeste 13 Oeste 0 1009.3 -1.3 73
2019-11-20 16:00:00 13.7 10 Sudoeste 17 Sudoeste 0 1009.7 -1.7 68
2019-11-20 15:00:00 13.7 9 Sudoeste 15 Sudoeste 0 1010 -2.3 64
2019-11-20 14:00:00 13.5 2 Norte 13 Norte 0 1010.6 -2.3 59
2019-11-20 13:00:00 12 10 Norte 21 Norte 0 1011.4 -1.8 57
2019-11-20 12:00:00 10.7 19 Norte 26 Norte 0 1012.3 -0.7 56
2019-11-20 11:00:00 8.4 21 Norte 26 Norte 0 1012.9 -0.1 63
2019-11-20 10:00:00 5.5 21 Norte 30 Norte 0 1013.2 0.1 72
2019-11-20 09:00:00 4.7 23 Norte 32 Norte 0 1013 -0.3 74
2019-11-20 08:00:00 3.4 25 Norte 32 Norte 0 1013 -0.5 79
2019-11-20 07:00:00 3.4 25 Norte 30 Norte 0 1013.1 -0.7 79
2019-11-20 06:00:00 3.5 24 Norte 32 Norte 0 1013.3 -0.7 79
2019-11-20 05:00:00 4.2 21 Norte 33 Nordeste 0 1013.5 -0.8 77
2019-11-20 04:00:00 4.3 22 Norte 28 Norte 0 1013.8 -0.9 76
2019-11-20 03:00:00 4.5 22 Norte 30 Norte 0 1014 -1.2 76
2019-11-20 02:00:00 4.8 19 Norte 30 Norte 0 1014.3 -1.2 76
2019-11-20 01:00:00 5.4 20 Norte 28 Norte 0 1014.7 -0.8 75
2019-11-20 00:00:00 6.2 19 Norte 26 Norte 0 1015.2 -0.3 73
2019-11-19 23:00:00 6.8 18 Norte -- -- -- 1015.5 0.1 73
2019-11-19 22:00:00 7 14 Norte 18 Norte 0 1015.5 0.5 74
2019-11-19 21:00:00 7.7 14 Norte 17 Norte 0 1015.5 1.1 74
2019-11-19 20:00:00 8.1 13 Norte 17 Norte 0 1015.4 1.1 75
2019-11-19 19:00:00 8.4 9 Norte 11 Norte 0 1015 0.5 73
2019-11-19 18:00:00 11 -- -- -- -- 0 1014.4 0.2 59
2019-11-19 17:00:00 12.7 6 Sudoeste 17 Sudoeste 0 1014.3 -0.2 52
2019-11-19 16:00:00 12.9 10 Sudoeste 17 Sur 0 1014.5 -0.5 52
2019-11-19 15:00:00 13.1 13 Sudoeste 18 Sudoeste 0 1014.2 -1.4 49
2019-11-19 14:00:00 13.9 8 Sur 17 Sur 0 1014.5 -1.4 37
2019-11-19 13:00:00 12.4 8 Norte 26 Norte 0 1015 -0.7 45
2019-11-19 12:00:00 11 17 Norte 28 Norte 0 1015.6 -0.1 47
2019-11-19 11:00:00 9.7 18 Norte 32 Nordeste 0 1015.9 1 55
2019-11-19 10:00:00 8.1 15 Norte 24 Norte 0 1015.7 1.3 61
2019-11-19 09:00:00 6.8 19 Norte 39 Norte 0 1015.7 1.8 63
2019-11-19 08:00:00 5.8 23 Norte 30 Norte 0 1014.9 1.2 67
2019-11-19 07:00:00 5 16 Norte 26 Norte 0 1014.4 0.5 73
2019-11-19 06:00:00 5.3 19 Norte 26 Norte 0 1013.9 -0.2 72
2019-11-19 05:00:00 5.7 18 Norte 28 Norte 0 1013.7 -0.2 71
2019-11-19 04:00:00 6 19 Norte 26 Norte 0 1013.9 -0.3 71
2019-11-19 03:00:00 6.5 16 Norte 22 Norte 0 1014.1 -0.2 71
2019-11-19 02:00:00 6.6 8 Norte 13 Noroeste 0 1013.9 0 74
2019-11-19 01:00:00 7.7 4 Norte 15 Noroeste 0 1014.2 0.8 69
2019-11-19 00:00:00 7.8 11 Noroeste 15 Noroeste 0 1014.3 1.8 79
2019-11-18 23:00:00 8.7 12 Noroeste 15 Norte 0 1013.9 1.8 76
2019-11-18 22:00:00 10.5 11 Norte 13 Nordeste 0 1013.4 1.7 68
2019-11-18 21:00:00 10.9 5 Noroeste 15 Norte 0 1012.5 1.5 67
2019-11-18 20:00:00 11.1 14 Norte 18 Norte 0 1012.1 1.7 65
2019-11-18 19:00:00 11 11 Norte 18 Norte 0 1011.7 1.7 67
2019-11-18 18:00:00 11.7 12 Oeste 22 Oeste 0 1011 1.5 67
2019-11-18 17:00:00 13.4 14 Oeste 32 Oeste 0 1010.4 0.9 65
2019-11-18 16:00:00 14.2 20 Sudoeste 30 Oeste 0 1010 0.4 62
2019-11-18 15:00:00 15.8 5 Noroeste 15 Este 0 1009.5 -0.3 49
2019-11-18 14:00:00 14.5 4 Nordeste 24 Norte 0 1009.5 -0.4 55
2019-11-18 13:00:00 12.6 10 Noroeste 33 Nordeste 0 1009.6 0.5 62
2019-11-18 12:00:00 12 13 Norte 41 Norte 0 1009.8 1.3 62
2019-11-18 11:00:00 11.2 17 Norte 41 Norte 0 1009.9 1.6 66
2019-11-18 10:00:00 9.1 15 Norte 22 Norte 0 1009.1 0.9 76
2019-11-18 09:00:00 8.6 17 Norte 24 Norte 0 1008.5 1.3 78
2019-11-18 08:00:00 7.5 15 Norte 21 Norte 0 1008.3 1.4 83
2019-11-18 07:00:00 8.5 16 Norte 39 Norte 0 1008.2 1.3 79
2019-11-18 06:00:00 8.4 16 Norte 21 Norte 0 1007.2 0.2 81
2019-11-18 05:00:00 8.4 11 Norte 17 Norte 0 1006.9 0 82
2019-11-18 04:00:00 9.1 8 Norte 15 Norte 0 1006.9 -0.1 79
2019-11-18 03:00:00 9.7 13 Norte 18 Norte 0 1007 -0.1 76
2019-11-18 02:00:00 9.9 15 Norte 28 Nordeste 0 1006.9 -0.5 76
2019-11-18 01:00:00 9.8 15 Norte 17 Norte 0 1007 -0.9 78
2019-11-18 00:00:00 10.3 12 Norte 21 Norte 0 1007.1 -0.7 76
2019-11-17 23:00:00 10.9 6 Norte 17 Norte 0 1007.4 -0.4 68
2019-11-17 22:00:00 11 9 Norte 13 Norte 0 1007.9 0.1 70
2019-11-17 21:00:00 11.9 9 Norte 15 Oeste 0 1007.8 0 65
2019-11-17 20:00:00 11.9 3 Norte 13 Noroeste 0 1007.8 0.5 63
2019-11-17 19:00:00 12.2 9 Norte 21 Noroeste 0 1007.8 0.4 63
2019-11-17 18:00:00 12.4 11 Noroeste 17 Oeste 0 1007.8 0.2 59
2019-11-17 17:00:00 12.4 10 Oeste 22 Oeste 0 1007.3 -0.4 61
2019-11-17 16:00:00 15.1 19 Oeste 32 Oeste 0 1007.4 -0.8 48
2019-11-17 15:00:00 14.1 17 Oeste 26 Oeste 0 1007.6 -0.9 52
2019-11-17 14:00:00 14.3 3 Norte 13 Sudeste 0 1007.7 -1.1 53
2019-11-17 13:00:00 13 7 Sur 13 Sudeste 0 1008.2 -0.6 54
2019-11-17 12:00:00 11.9 3 Nordeste 18 Norte 0 1008.5 -0.4 56
2019-11-17 11:00:00 10.5 11 Norte 21 Norte 0 1008.8 -0.1 60
2019-11-17 10:00:00 7.6 15 Norte 24 Norte 0 1008.8 0.2 70
2019-11-17 09:00:00 6 18 Norte 24 Norte 0 1008.9 0.2 76
2019-11-17 08:00:00 4.7 15 Norte 22 Norte 0 1008.9 0 82
2019-11-17 07:00:00 4.4 15 Norte 22 Norte 0 1008.6 -0.6 82
2019-11-17 06:00:00 4.7 5 Norte 21 Norte 0 1008.7 -0.8 80
2019-11-17 05:00:00 5 16 Norte 26 Norte 0 1008.9 -0.8 80
2019-11-17 04:00:00 5.9 15 Norte 21 Norte 0 1009.2 -0.6 76
2019-11-17 03:00:00 6.3 9 Norte 15 Norte 0 1009.5 -0.6 73
2019-11-17 02:00:00 6.8 13 Norte 26 Noroeste 0 1009.7 -0.7 71
2019-11-17 01:00:00 7.1 12 Noroeste 21 Noroeste 0 1009.8 -0.9 71
2019-11-17 00:00:00 7.5 10 Noroeste 26 Noroeste 0 1010.1 -0.2 70
2019-11-16 23:00:00 7.5 19 Noroeste 26 Noroeste 0 1010.4 0.1 70
2019-11-16 22:00:00 8.3 13 Nordeste 24 Norte 0 1010.7 0.4 67
2019-11-16 21:00:00 8.2 9 Oeste 26 Oeste 0 1010.3 -0.1 66
2019-11-16 20:00:00 8.2 13 Oeste 24 Oeste 0 1010.3 0.2 65
2019-11-16 19:00:00 9.1 9 Noroeste 22 Noroeste 0 1010.3 0.4 53
2019-11-16 18:00:00 9.6 14 Oeste 24 Noroeste 0 1010.4 0.6 49
2019-11-16 17:00:00 12.8 17 Noroeste 30 Noroeste 0 1010.1 0 44
2019-11-16 16:00:00 13.3 15 Oeste 21 Oeste 0 1009.9 -0.4 63
2019-11-16 15:00:00 13.9 5 Norte 17 Norte 0 1009.8 -1 54
2019-11-16 14:00:00 13.7 5 Norte 18 Norte 0 1010.1 -1 55
2019-11-16 13:00:00 12.9 16 Norte 30 Norte 0 1010.3 -0.3 58
2019-11-16 12:00:00 11.6 19 Norte 30 Norte 0 1010.8 0.5 60
2019-11-16 11:00:00 9.4 23 Norte 37 Norte 0 1011.1 1.5 67
2019-11-16 10:00:00 7.7 23 Norte 37 Norte 0 1010.6 2 72
2019-11-16 09:00:00 7.1 27 Norte 39 Norte 0 1010.3 2.4 73
2019-11-16 08:00:00 6.6 26 Norte 37 Norte 0 1009.6 2 76
2019-11-16 07:00:00 5.6 23 Norte 30 Norte 0 1008.6 1.5 81
2019-11-16 06:00:00 5.4 23 Norte 32 Norte 0 1007.9 1.3 82
2019-11-16 05:00:00 5.6 22 Norte 30 Norte 0 1007.6 1.6 82
2019-11-16 04:00:00 5.7 21 Norte 26 Norte 0 1007.1 1.5 83
2019-11-16 03:00:00 6.1 18 Norte 22 Norte 0 1006.6 1.5 82
2019-11-16 02:00:00 6.1 9 Norte 22 Nordeste 0 1006 1.8 82
2019-11-16 01:00:00 6.9 14 Norte 18 Norte 0 1005.6 2.2 78
2019-11-16 00:00:00 7.3 9 Noroeste 13 Noroeste 0 1005.1 2.4 73
2019-11-15 23:00:00 7.8 5 Norte 13 Noroeste 0 1004.2 1.9 71
2019-11-15 22:00:00 8.7 9 Oeste 17 Oeste 0 1003.4 2 66
2019-11-15 21:00:00 9.3 12 Oeste 17 Oeste 0 1002.7 1.8 63
2019-11-15 20:00:00 10.1 14 Noroeste 32 Oeste 0 1002.3 2.1 59
2019-11-15 19:00:00 10.9 14 Oeste 22 Noroeste 0 1001.4 1.5 57
2019-11-15 18:00:00 11.4 21 Noroeste 35 Oeste 0 1000.9 1.4 52
2019-11-15 17:00:00 11.8 23 Noroeste 39 Oeste 0 1000.2 0.5 51
2019-11-15 16:00:00 13.7 22 Noroeste 33 Noroeste 0 999.9 -0.2 45
2019-11-15 15:00:00 13.5 18 Sudoeste 24 Sudoeste 0 999.5 -1.2 54
2019-11-15 14:00:00 12.8 12 Norte 26 Norte 0 999.7 -1.3 54
2019-11-15 13:00:00 12.2 19 Norte 28 Norte 0 1000.1 -0.7 54
2019-11-15 12:00:00 10.5 9 Nordeste 21 Norte 0 1000.7 -0.1 65
2019-11-15 11:00:00 8.4 13 Norte 24 Norte 0 1001 0.8 74
2019-11-15 10:00:00 6.6 17 Norte 26 Norte 0 1000.8 1.2 80
2019-11-15 09:00:00 5.5 18 Norte 26 Norte 0 1000.8 1.5 83
2019-11-15 08:00:00 5.5 13 Norte 22 Norte 0 1000.2 1.2 83
2019-11-15 07:00:00 5.2 20 Norte 26 Norte 0 999.6 0.4 82
2019-11-15 06:00:00 5.4 18 Norte 26 Norte 0 999.3 0.1 84
2019-11-15 05:00:00 5.4 18 Norte 26 Norte 0 999 0.1 85
2019-11-15 04:00:00 5.6 17 Norte 22 Norte 0 999.2 0.3 86
2019-11-15 03:00:00 5.9 11 Norte 26 Norte 0 999.2 0.7 88
2019-11-15 02:00:00 5.8 18 Norte 33 Nordeste 0 998.9 0.5 88
2019-11-15 01:00:00 5.8 14 Norte 21 Norte 0 998.9 0.5 88
2019-11-15 00:00:00 5.2 15 Norte 21 Norte 0 998.5 0.7 90
2019-11-14 23:00:00 5.6 14 Norte 18 Norte 0 998.4 0.4 88
2019-11-14 22:00:00 6 4 Norte 13 Norte 0 998.4 0.7 87
2019-11-14 21:00:00 6.5 4 Nordeste 13 Norte 0 997.8 0.8 88
2019-11-14 20:00:00 7.6 3 Oeste 13 Oeste 0 998 1.1 82
2019-11-14 19:00:00 8.9 7 Nordeste 9 Este 0 997.7 1.4 78
2019-11-14 18:00:00 9.6 7 Norte 21 Norte 0 997 0.4 74
2019-11-14 17:00:00 10.4 13 Norte 18 Norte 0 996.9 1.1 71
2019-11-14 16:00:00 10.8 12 Norte 21 Norte 0.2 996.3 0.2 73
2019-11-14 15:00:00 11.5 15 Norte 24 Norte 0 996.6 -0.2 71
2019-11-14 14:00:00 12.7 5 Norte 17 Norte 0 995.8 -1.6 74
2019-11-14 13:00:00 13 6 Noroeste 24 Noroeste 0 996.1 -1.6 76
2019-11-14 12:00:00 11.4 19 Norte 32 Nordeste 4.8 996.8 -1.7 91
2019-11-14 11:00:00 11.7 22 Norte 28 Norte 0 997.4 -1.2 83
2019-11-14 10:00:00 10.9 15 Norte 21 Norte 0 997.7 -1.7 88
2019-11-14 09:00:00 10.5 15 Norte 21 Norte 0 998.5 -2.5 89
2019-11-14 08:00:00 11.2 6 Norte 37 Oeste 1 998.6 -3.5 86
2019-11-14 07:00:00 16.1 23 Oeste 42 Sudoeste 2.5 999.4 -4.1 90
2019-11-14 06:00:00 15.7 33 Sudoeste 46 Sudoeste 0.2 1001 -3.8 83
2019-11-14 05:00:00 12.4 6 Oeste 17 Oeste 0 1002.1 -3.9 81
2019-11-14 04:00:00 8.6 6 Oeste 11 Sudoeste 0 1003.5 -2.9 85
2019-11-14 03:00:00 8 6 Norte 11 Noroeste 0 1004.8 -2.1 86
2019-11-14 02:00:00 7.9 5 Norte 17 Norte 0 1006 -1.5 87
2019-11-14 01:00:00 8.7 8 Norte 17 Norte 0 1006.4 -1.7 89
2019-11-14 00:00:00 8.7 10 Nordeste 17 Norte 0 1006.9 -1.4 89
2019-11-13 23:00:00 9.3 3 Norte 15 Norte 0 1007.5 -1.4 88
2019-11-13 22:00:00 9.7 4 Norte 13 Noroeste 0 1008.1 -0.2 86
2019-11-13 21:00:00 10.4 8 Noroeste 13 Noroeste 0 1008.3 0.4 83
2019-11-13 20:00:00 10.6 6 Noroeste 17 Oeste 0 1008.9 1.3 85
2019-11-13 19:00:00 13.5 15 Sudoeste 21 Oeste 0 1008.3 1.6 72
2019-11-13 18:00:00 12.8 11 Oeste 17 Oeste 0 1007.9 1.3 76
2019-11-13 17:00:00 14.3 15 Sudoeste 24 Oeste 0 1007.6 0.9 71
2019-11-13 16:00:00 14.8 16 Sudoeste 18 Sudoeste 0 1006.7 0.3 69
2019-11-13 15:00:00 14.9 13 Sudoeste 17 Oeste 0.1 1006.6 -0.3 70
2019-11-13 14:00:00 13.5 8 Norte 42 Nordeste 0 1006.7 0.1 72
2019-11-13 13:00:00 10.6 16 Norte 46 Norte 0 1006.4 0.5 81
2019-11-13 12:00:00 10.1 11 Norte 26 Norte 0 1006.9 1.8 87
2019-11-13 11:00:00 9.4 10 Norte 24 Norte 0.3 1006.6 2.4 90
2019-11-13 10:00:00 9.3 15 Norte 24 Norte 0.5 1005.9 2.1 87
2019-11-13 09:00:00 10.5 16 Norte 24 Norte 0 1005.1 1.3 75
2019-11-13 08:00:00 10.3 14 Norte 21 Norte 0 1004.2 0.4 71
2019-11-13 07:00:00 9.7 15 Norte 22 Norte 0 1003.8 -0.1 75
2019-11-13 06:00:00 9.9 12 Noroeste 17 Norte 0 1003.8 -0.8 73
2019-11-13 05:00:00 9.2 11 Norte 17 Norte 0 1003.8 -0.8 75
2019-11-13 04:00:00 9.3 6 Noroeste 13 Norte 0 1003.9 -1.3 74
2019-11-13 03:00:00 9.6 11 Norte 17 Norte 0 1004.6 -0.9 74
2019-11-13 02:00:00 10.4 9 Norte 21 Nordeste 0 1004.6 -1.3 70
2019-11-13 01:00:00 11.5 8 Norte 17 Noroeste 0 1005.2 -0.7 65
2019-11-13 00:00:00 11.9 11 Noroeste 22 Oeste 0 1005.5 -0.2 63
2019-11-12 23:00:00 10.6 9 Noroeste 11 Noroeste 0 1005.9 0.2 68
2019-11-12 22:00:00 12.8 10 Noroeste 17 Noroeste 0 1005.9 0.3 59
2019-11-12 21:00:00 13.3 11 Norte 18 Norte 0 1005.7 0.2 57
2019-11-12 20:00:00 14.1 2 Sur 13 Nordeste 0 1005.7 0.4 50
2019-11-12 19:00:00 15.1 5 Sudoeste 26 Noroeste 0 1005.6 0.2 45
2019-11-12 18:00:00 15.3 19 Noroeste 28 Noroeste 0 1005.5 -0.1 44
2019-11-12 17:00:00 17.6 15 Oeste 28 Noroeste 0 1005.3 -1.1 35
2019-11-12 16:00:00 18.7 17 Noroeste 28 Noroeste 0 1005.4 -2.4 31
2019-11-12 15:00:00 18.7 14 Noroeste 24 Noroeste 0 1005.6 -3.2 29
2019-11-12 14:00:00 17.7 6 Sur 26 Sudoeste 0 1006.4 -2.8 36
2019-11-12 13:00:00 16.9 14 Sudoeste 22 Oeste 0 1007.8 -1.4 37
2019-11-12 12:00:00 16 16 Norte 24 Norte 0 1008.8 -0.5 35
2019-11-12 11:00:00 14.9 2 Nordeste 11 Sur 0 1009.2 0 45
2019-11-12 10:00:00 12.8 3 Noroeste 15 Nordeste 0 1009.2 -0.1 50
2019-11-12 09:00:00 10 12 Nordeste 28 Norte 0 1009.3 -0.3 63
2019-11-12 08:00:00 8.9 13 Norte 24 Norte 0 1009.2 -0.4 66
2019-11-12 07:00:00 8.7 18 Norte 28 Norte 0 1009.3 -0.1 67
2019-11-12 06:00:00 8.7 10 Norte 22 Norte 0 1009.6 -0.1 68
2019-11-12 05:00:00 9.1 15 Norte 26 Norte 0 1009.6 -0.1 68
2019-11-12 04:00:00 9.2 15 Norte 28 Norte 0 1009.4 -0.5 72
2019-11-12 03:00:00 9.7 18 Norte 28 Norte 0 1009.7 -0.2 72
2019-11-12 02:00:00 10.3 17 Norte 35 Nordeste 0 1009.7 -0.2 72
2019-11-12 01:00:00 10.5 16 Norte 26 Norte 0 1009.9 0.1 73
2019-11-12 00:00:00 10.3 19 Norte 28 Norte 0 1009.9 0.2 73